Time;durP1;ratioP1;P1;durP2;ratioP2;P2;SDS_P1;SDS_P2;PMS_P1;PMS_P2;Temp;Humidity;BMP_temperature;BMP_pressure;BME280_temperature;BME280_humidity;BME280_pressure;Samples;Min_cycle;Max_cycle;Signal;HPM_P1;HPM_P2
2023/12/05 00:01:33;;;;;;;10.70;6.07;;;;;;;7.06;68.15;95768.19;4893072;28;20197;-80
2023/12/05 00:03:59;;;;;;;11.18;6.72;;;;;;;6.93;68.20;95762.47;4901618;28;20642;-81
2023/12/05 00:06:25;;;;;;;10.65;6.82;;;;;;;7.07;67.84;95762.00;4893496;28;20272;-82
2023/12/05 00:08:50;;;;;;;10.60;6.43;;;;;;;7.14;68.20;95762.50;4890570;28;20279;-81
2023/12/05 00:11:16;;;;;;;10.38;6.88;;;;;;;7.02;68.21;95759.38;4908653;28;20382;-81
2023/12/05 00:13:42;;;;;;;11.30;7.22;;;;;;;7.05;68.58;95756.28;4909716;28;20044;-81
2023/12/05 00:16:08;;;;;;;11.13;6.28;;;;;;;7.04;68.08;95759.91;4896870;28;20256;-81
2023/12/05 00:18:33;;;;;;;10.73;7.20;;;;;;;6.77;69.72;95747.97;4917333;28;20190;-82
2023/12/05 00:20:59;;;;;;;11.82;7.00;;;;;;;7.02;68.44;95759.38;4899912;28;20512;-81
2023/12/05 00:23:25;;;;;;;13.50;7.63;;;;;;;6.96;69.11;95760.41;4910571;28;20174;-81
2023/12/05 00:25:50;;;;;;;11.55;6.70;;;;;;;7.15;68.71;95761.50;4891182;28;20209;-82
2023/12/05 00:28:15;;;;;;;12.15;7.55;;;;;;;7.14;68.68;95757.34;4909803;28;20269;-81
2023/12/05 00:30:41;;;;;;;10.95;6.88;;;;;;;7.14;67.97;95757.34;4911405;28;20641;-81
2023/12/05 00:33:06;;;;;;;10.63;6.82;;;;;;;7.10;68.64;95756.31;4924439;28;20639;-81
2023/12/05 00:35:32;;;;;;;11.60;7.53;;;;;;;7.00;69.05;95759.63;4911856;28;20385;-83
2023/12/05 00:37:58;;;;;;;13.70;7.22;;;;;;;7.15;67.65;95769.25;4872907;28;20205;-81
2023/12/05 00:40:29;;;;;;;11.20;6.63;;;;;;;6.88;69.36;95759.09;4907019;28;20112;-80
2023/12/05 00:42:57;;;;;;;10.68;7.30;;;;;;;7.06;68.69;95763.00;4915289;28;20108;-82
2023/12/05 00:45:23;;;;;;;10.38;6.90;;;;;;;7.12;68.45;95769.75;4874068;28;20205;-81
2023/12/05 00:47:50;;;;;;;12.18;6.75;;;;;;;7.10;68.93;95772.59;4907385;28;20621;-81
2023/12/05 00:50:16;;;;;;;11.38;7.25;;;;;;;6.97;68.85;95756.78;4931948;28;20228;-81
2023/12/05 00:52:41;;;;;;;12.40;7.82;;;;;;;7.02;69.24;95757.56;4904337;28;20283;-81
2023/12/05 00:55:07;;;;;;;12.52;7.57;;;;;;;7.02;68.58;95764.56;4913015;28;20639;-81
2023/12/05 00:57:32;;;;;;;12.32;7.40;;;;;;;7.17;68.69;95763.81;4906479;28;20631;-81
2023/12/05 00:59:57;;;;;;;13.05;7.78;;;;;;;7.17;68.33;95774.19;4875682;28;20205;-83
2023/12/05 01:02:23;;;;;;;11.70;7.18;;;;;;;6.92;69.79;95771.28;4907536;28;20193;-81
2023/12/05 01:04:49;;;;;;;11.30;7.53;;;;;;;6.96;70.06;95773.34;4923407;28;20279;-81
2023/12/05 01:07:14;;;;;;;11.48;7.57;;;;;;;7.23;69.72;95780.91;4891433;28;20167;-81
2023/12/05 01:09:40;;;;;;;12.75;8.02;;;;;;;6.94;70.62;95768.44;4888984;28;20225;-81
2023/12/05 01:12:06;;;;;;;10.82;7.28;;;;;;;6.86;70.62;95774.09;4886105;28;20217;-82
2023/12/05 01:14:31;;;;;;;13.98;8.07;;;;;;;7.12;69.57;95778.28;4910497;28;20192;-83
2023/12/05 01:16:56;;;;;;;12.60;7.32;;;;;;;7.25;68.46;95777.03;4881953;28;20199;-81
2023/12/05 01:19:22;;;;;;;13.65;8.02;;;;;;;7.20;69.44;95784.78;4908537;28;20185;-81
2023/12/05 01:21:47;;;;;;;12.88;7.22;;;;;;;7.23;69.03;95791.25;4893045;28;20307;-82
2023/12/05 01:24:12;;;;;;;12.43;7.45;;;;;;;7.28;68.32;95789.47;4916112;28;20323;-81
2023/12/05 01:26:38;;;;;;;11.15;7.32;;;;;;;7.34;67.93;95792.06;4904571;28;20296;-81
2023/12/05 01:29:04;;;;;;;11.43;7.43;;;;;;;7.11;69.75;95791.50;4905996;28;20197;-81
2023/12/05 01:31:30;;;;;;;14.55;8.27;;;;;;;7.18;68.73;95792.03;4883610;28;20542;-81
2023/12/05 01:33:56;;;;;;;13.65;8.20;;;;;;;7.30;69.30;95789.22;4875260;28;20248;-81
2023/12/05 01:36:22;;;;;;;11.57;7.18;;;;;;;7.24;68.95;95785.81;4921650;28;20390;-81
2023/12/05 01:38:48;;;;;;;12.57;7.63;;;;;;;7.27;69.39;95798.25;4908968;28;20313;-81
2023/12/05 01:41:13;;;;;;;13.32;7.55;;;;;;;7.22;68.62;95795.66;4924650;28;20285;-82
2023/12/05 01:43:39;;;;;;;13.10;8.35;;;;;;;7.23;68.34;95791.25;4893323;28;20281;-83
2023/12/05 01:46:04;;;;;;;13.10;8.52;;;;;;;7.19;69.16;95785.81;4909406;28;20292;-82
2023/12/05 01:48:30;;;;;;;13.10;6.95;;;;;;;7.18;68.97;95784.28;4880576;28;20644;-82
2023/12/05 01:50:56;;;;;;;12.68;7.55;;;;;;;7.23;69.21;95797.22;4874912;28;20292;-80
2023/12/05 01:53:22;;;;;;;11.95;7.63;;;;;;;7.28;68.63;95799.81;4911381;28;20249;-82
2023/12/05 01:55:48;;;;;;;11.85;7.78;;;;;;;7.32;69.26;95806.03;4918026;28;20222;-81
2023/12/05 01:58:18;;;;;;;14.50;7.88;;;;;;;7.21;70.23;95791.50;4894231;28;20194;-81
2023/12/05 02:00:44;;;;;;;13.80;8.45;;;;;;;7.20;69.07;95797.75;4915590;28;20331;-81
2023/12/05 02:03:10;;;;;;;11.63;8.18;;;;;;;7.37;68.66;95797.50;4908258;28;20367;-80
2023/12/05 02:05:36;;;;;;;11.05;7.38;;;;;;;7.34;69.35;95792.06;4896573;28;20192;-82
2023/12/05 02:08:02;;;;;;;12.30;7.88;;;;;;;7.28;67.62;95797.25;4874978;28;20171;-82
2023/12/05 02:10:27;;;;;;;10.65;7.40;;;;;;;7.28;69.31;95794.66;4913485;28;20637;-81
2023/12/05 02:12:52;;;;;;;13.48;8.40;;;;;;;7.17;69.17;95798.25;4882525;28;20198;-82
2023/12/05 02:15:18;;;;;;;10.15;7.20;;;;;;;7.42;68.69;95802.69;4907613;28;20171;-81
2023/12/05 02:18:16;;;;;;;12.07;7.32;;;;;;;7.54;68.31;95797.25;4876374;28;20252;-80
2023/12/05 02:20:48;;;;;;;11.40;7.43;;;;;;;7.48;68.18;95793.88;4872418;28;20208;-81
2023/12/05 02:23:35;;;;;;;12.85;6.57;;;;;;;7.53;68.74;95800.09;4913003;28;20620;-81
2023/12/05 02:26:33;;;;;;;10.73;6.55;;;;;;;7.44;69.31;95798.03;4906503;28;20185;-81
2023/12/05 02:28:58;;;;;;;11.57;7.03;;;;;;;7.44;68.18;95803.19;4900403;28;20666;-80
2023/12/05 02:31:23;;;;;;;10.85;6.68;;;;;;;7.32;69.14;95798.25;4878846;28;20193;-83
2023/12/05 02:33:49;;;;;;;9.57;6.22;;;;;;;7.34;69.07;95800.59;4897288;28;20412;-81
2023/12/05 02:36:27;;;;;;;10.00;6.47;;;;;;;7.29;69.79;95808.34;4907453;28;20220;-82
2023/12/05 02:39:21;;;;;;;9.43;5.72;;;;;;;7.43;69.61;95808.63;4907708;28;20725;-81
2023/12/05 02:41:52;;;;;;;13.32;6.68;;;;;;;7.55;67.86;95809.16;4918591;28;20264;-81
2023/12/05 02:44:18;;;;;;;10.90;6.30;;;;;;;7.42;69.02;95804.47;4909407;28;20441;-81
2023/12/05 02:46:44;;;;;;;10.00;6.00;;;;;;;7.34;69.09;95795.41;4887635;28;20367;-81
2023/12/05 02:49:12;;;;;;;11.30;6.50;;;;;;;7.42;69.77;95805.28;4910228;28;20232;-81
2023/12/05 02:51:38;;;;;;;9.85;5.65;;;;;;;7.39;68.97;95800.59;4889260;28;20190;-81
2023/12/05 02:54:06;;;;;;;9.82;5.45;;;;;;;7.42;70.34;95799.31;4875387;28;20099;-84
2023/12/05 02:56:33;;;;;;;8.85;5.50;;;;;;;7.32;69.39;95772.38;4880052;28;20278;-81
2023/12/05 02:58:58;;;;;;;9.35;5.82;;;;;;;7.54;68.78;95794.66;4871775;28;20186;-82
2023/12/05 03:01:24;;;;;;;8.35;5.10;;;;;;;7.52;69.22;95801.91;4894505;28;20236;-81
2023/12/05 03:03:49;;;;;;;9.60;5.93;;;;;;;7.61;68.79;95799.59;4902126;28;20187;-82
2023/12/05 03:06:14;;;;;;;7.95;4.38;;;;;;;7.55;68.88;95787.66;4891435;28;20644;-82
2023/12/05 03:08:40;;;;;;;9.07;5.53;;;;;;;7.55;70.06;95798.03;4891111;28;20309;-81
2023/12/05 03:11:05;;;;;;;8.13;4.68;;;;;;;7.49;69.91;95799.84;4891630;28;20210;-83
2023/12/05 03:13:31;;;;;;;8.30;4.47;;;;;;;7.40;70.06;95798.78;4892259;28;20211;-82
2023/12/05 03:15:56;;;;;;;8.25;5.10;;;;;;;7.53;69.52;95800.88;4889488;28;20161;-82
2023/12/05 03:18:24;;;;;;;8.43;4.05;;;;;;;7.58;69.73;95792.34;4923461;28;20644;-81
2023/12/05 03:20:49;;;;;;;6.50;4.15;;;;;;;7.69;67.96;95788.69;4891217;28;20197;-81
2023/12/05 03:23:18;;;;;;;6.45;3.55;;;;;;;7.64;69.20;95796.47;4891928;28;20217;-81
2023/12/05 03:25:43;;;;;;;6.95;4.35;;;;;;;7.52;70.59;95798.53;4910098;28;20194;-81
2023/12/05 03:28:09;;;;;;;6.30;3.80;;;;;;;7.52;69.63;95794.13;4891704;28;20163;-83
2023/12/05 03:30:34;;;;;;;6.90;3.28;;;;;;;7.57;69.62;95791.53;4893544;28;20213;-82
2023/12/05 03:32:59;;;;;;;5.13;3.28;;;;;;;7.62;70.53;95783.78;4896536;28;20270;-81
2023/12/05 03:35:25;;;;;;;5.18;3.50;;;;;;;7.58;70.08;95794.94;4895553;28;20632;-83
2023/12/05 03:37:50;;;;;;;4.95;3.03;;;;;;;7.63;69.42;95789.75;4891150;28;20288;-82
2023/12/05 03:40:16;;;;;;;5.90;2.95;;;;;;;7.47;70.38;95796.72;4907991;28;20103;-84
2023/12/05 03:42:41;;;;;;;3.70;2.92;;;;;;;7.58;68.83;95787.94;4886826;28;20760;-82
2023/12/05 03:45:07;;;;;;;6.47;2.83;;;;;;;7.71;69.24;95791.81;4906126;28;20249;-82
2023/12/05 03:47:32;;;;;;;4.45;2.45;;;;;;;7.74;69.80;95790.50;4885367;28;20298;-81
2023/12/05 03:49:57;;;;;;;4.03;2.60;;;;;;;7.54;69.47;95797.25;4920428;28;20662;-82
2023/12/05 03:52:23;;;;;;;6.53;2.28;;;;;;;7.53;70.30;95800.09;4875992;28;20213;-81
2023/12/05 03:54:48;;;;;;;5.03;2.30;;;;;;;7.54;71.24;95802.44;4919672;28;20148;-82
2023/12/05 03:57:14;;;;;;;5.07;2.42;;;;;;;7.58;70.53;95807.88;4928503;28;20201;-82
2023/12/05 03:59:39;;;;;;;4.10;2.17;;;;;;;7.63;70.78;95793.09;4921892;28;20305;-82
2023/12/05 04:02:04;;;;;;;3.38;2.15;;;;;;;7.63;70.24;95798.28;4897979;28;20590;-82
2023/12/05 04:04:30;;;;;;;4.43;1.83;;;;;;;7.40;71.36;95809.16;4906568;28;20320;-82
2023/12/05 04:06:55;;;;;;;4.10;1.70;;;;;;;7.80;70.61;95799.84;4906063;28;20221;-82
2023/12/05 04:09:20;;;;;;;2.42;1.45;;;;;;;7.77;70.45;95808.13;4873930;28;20197;-83
2023/12/05 04:11:46;;;;;;;4.10;2.00;;;;;;;7.82;70.11;95813.31;4873887;28;20299;-82
2023/12/05 04:14:11;;;;;;;4.43;1.70;;;;;;;7.93;70.55;95809.66;4909567;28;20292;-82
2023/12/05 04:16:37;;;;;;;3.70;1.83;;;;;;;7.81;69.97;95809.16;4906752;28;20148;-83
2023/12/05 04:19:02;;;;;;;3.65;1.30;;;;;;;7.97;69.42;95815.91;4890353;28;20257;-85
2023/12/05 04:21:27;;;;;;;2.95;1.48;;;;;;;8.07;69.55;95815.91;4880080;28;20217;-84
2023/12/05 04:23:53;;;;;;;2.25;1.27;;;;;;;8.07;69.61;95822.88;4894863;28;20673;-82
2023/12/05 04:26:19;;;;;;;2.53;1.30;;;;;;;7.95;69.12;95823.16;4892139;28;21070;-84
2023/12/05 04:28:45;;;;;;;2.75;1.20;;;;;;;8.11;70.35;95826.50;4901416;28;20213;-82
2023/12/05 04:31:11;;;;;;;4.43;1.50;;;;;;;8.04;68.65;95823.41;4910049;28;20277;-82
2023/12/05 04:33:38;;;;;;;2.97;1.30;;;;;;;8.12;69.51;95819.50;4917704;28;20923;-81
2023/12/05 04:36:04;;;;;;;3.65;1.88;;;;;;;7.88;68.73;95830.41;4921191;28;20283;-81
2023/12/05 04:38:30;;;;;;;3.70;1.50;;;;;;;8.06;69.52;95824.69;4890333;28;20178;-82
2023/12/05 04:40:55;;;;;;;2.15;1.63;;;;;;;8.03;69.56;95821.84;4914241;28;20182;-82
2023/12/05 04:43:20;;;;;;;2.30;1.20;;;;;;;8.10;70.26;95837.16;4915320;28;20283;-83
2023/12/05 04:45:46;;;;;;;3.40;1.10;;;;;;;7.89;70.21;95821.59;4892271;28;20191;-81
2023/12/05 04:48:11;;;;;;;1.38;1.08;;;;;;;8.15;69.70;95832.72;4914976;28;20183;-81
2023/12/05 04:50:37;;;;;;;3.17;1.15;;;;;;;8.14;69.55;95836.38;4905643;28;20370;-82
2023/12/05 04:53:02;;;;;;;3.05;1.00;;;;;;;8.02;70.35;95844.41;4873761;28;20211;-82
2023/12/05 04:55:27;;;;;;;5.43;1.00;;;;;;;8.08;69.79;95832.22;4890747;28;20181;-81
2023/12/05 04:57:53;;;;;;;1.58;0.90;;;;;;;8.21;69.08;95841.28;4875052;28;20166;-83
2023/12/05 05:00:18;;;;;;;2.17;1.05;;;;;;;8.18;69.57;95827.03;4916458;28;20219;-82
2023/12/05 05:02:44;;;;;;;1.38;0.70;;;;;;;8.19;69.30;95840.75;4916042;28;20172;-82
2023/12/05 05:05:11;;;;;;;1.92;0.80;;;;;;;8.00;69.87;95830.16;4908424;28;20306;-82
2023/12/05 05:07:36;;;;;;;2.53;0.90;;;;;;;8.01;70.70;95834.31;4914056;28;20636;-81
2023/12/05 05:10:02;;;;;;;2.05;0.85;;;;;;;8.05;70.71;95830.94;4912884;28;20234;-81
2023/12/05 05:12:27;;;;;;;2.63;1.05;;;;;;;8.04;70.12;95828.59;4900265;28;20213;-82
2023/12/05 05:14:53;;;;;;;3.58;0.90;;;;;;;8.14;69.90;95830.38;4910286;28;20577;-80
2023/12/05 05:17:18;;;;;;;2.85;1.00;;;;;;;8.22;69.37;95822.09;4880413;28;20211;-81
2023/12/05 05:19:43;;;;;;;2.58;0.93;;;;;;;8.14;69.83;95828.59;4905883;28;20277;-82
2023/12/05 05:22:09;;;;;;;2.15;0.80;;;;;;;8.01;70.74;95840.25;4895493;28;20314;-81
2023/12/05 05:24:34;;;;;;;2.40;0.90;;;;;;;8.33;69.08;95844.38;4925799;28;20279;-80
2023/12/05 05:27:00;;;;;;;2.92;0.85;;;;;;;8.41;69.16;95851.63;4875455;28;20183;-80
2023/12/05 05:29:25;;;;;;;3.65;1.33;;;;;;;8.41;68.36;95841.25;4900989;28;20328;-81
2023/12/05 05:31:50;;;;;;;3.80;0.98;;;;;;;8.41;68.22;95838.66;4902610;28;20367;-80
2023/12/05 05:34:16;;;;;;;1.52;0.75;;;;;;;8.46;68.44;95842.31;4892257;28;20145;-80
2023/12/05 05:36:41;;;;;;;2.95;1.00;;;;;;;8.36;67.94;95843.06;4876464;28;20170;-80
2023/12/05 05:39:07;;;;;;;1.90;0.60;;;;;;;8.37;68.26;95842.81;4891533;28;20274;-81
2023/12/05 05:41:32;;;;;;;2.75;0.80;;;;;;;8.36;68.88;95843.84;4908515;28;20548;-80
2023/12/05 05:43:58;;;;;;;1.48;0.60;;;;;;;8.43;69.00;95859.16;4908430;28;20295;-81
2023/12/05 05:46:23;;;;;;;2.05;0.80;;;;;;;8.25;69.21;95855.28;4885953;28;20286;-81
2023/12/05 05:48:48;;;;;;;3.35;1.00;;;;;;;8.33;68.76;95852.16;4909481;28;20283;-80
2023/12/05 05:51:14;;;;;;;1.45;0.73;;;;;;;8.36;69.56;95859.41;4908267;28;20196;-81
2023/12/05 05:53:39;;;;;;;2.55;0.80;;;;;;;8.37;69.13;95845.38;4876595;28;20217;-81
2023/12/05 05:56:05;;;;;;;1.77;0.60;;;;;;;8.46;68.35;95857.88;4906589;28;20584;-81
2023/12/05 05:58:30;;;;;;;2.42;0.88;;;;;;;8.41;68.46;95854.22;4924048;28;20516;-81
2023/12/05 06:00:56;;;;;;;3.42;0.80;;;;;;;8.27;69.02;95855.78;4907006;28;20313;-80
2023/12/05 06:03:23;;;;;;;1.50;0.55;;;;;;;8.33;69.99;95859.94;4900529;28;20239;-81
2023/12/05 06:05:48;;;;;;;3.10;0.60;;;;;;;8.18;70.13;95847.00;4916710;28;20718;-80
2023/12/05 06:08:13;;;;;;;2.00;0.70;;;;;;;8.29;68.59;95848.50;4911128;28;20276;-81
2023/12/05 06:10:42;;;;;;;2.83;0.77;;;;;;;8.35;68.07;95846.72;4895686;28;20667;-81
2023/12/05 06:13:07;;;;;;;1.20;0.63;;;;;;;8.34;69.16;95848.50;4876533;28;20182;-80
2023/12/05 06:15:32;;;;;;;2.10;1.08;;;;;;;8.36;69.55;95854.22;4893398;28;20261;-82
2023/12/05 06:17:58;;;;;;;2.38;0.80;;;;;;;8.42;69.00;95850.59;4891810;28;20280;-80
2023/12/05 06:20:23;;;;;;;1.48;0.75;;;;;;;8.48;68.86;95856.53;4875971;28;20274;-80
2023/12/05 06:22:49;;;;;;;3.33;0.90;;;;;;;8.48;68.25;95858.38;4875551;28;20186;-80
2023/12/05 06:25:14;;;;;;;3.35;0.80;;;;;;;8.38;68.32;95856.53;4898475;28;20524;-81
2023/12/05 06:27:41;;;;;;;3.90;0.70;;;;;;;8.34;69.41;95861.47;4922122;28;20208;-81
2023/12/05 06:30:07;;;;;;;1.98;0.90;;;;;;;8.42;68.96;95863.56;4890972;28;20599;-82
2023/12/05 06:32:32;;;;;;;1.92;0.90;;;;;;;8.27;69.54;95867.97;4875179;28;20667;-82
2023/12/05 06:34:59;;;;;;;2.83;0.73;;;;;;;8.35;68.73;95877.84;4907714;28;20280;-82
2023/12/05 06:37:25;;;;;;;1.23;0.70;;;;;;;8.32;69.03;95868.75;4872949;28;20289;-81
2023/12/05 06:39:51;;;;;;;1.85;0.90;;;;;;;8.34;69.19;95877.03;4907513;28;20201;-81
2023/12/05 06:42:16;;;;;;;2.90;0.98;;;;;;;8.25;68.76;95868.25;4891299;28;20174;-83
2023/12/05 06:44:41;;;;;;;1.42;0.80;;;;;;;8.32;69.39;95884.31;4904667;28;20578;-80
2023/12/05 06:47:08;;;;;;;3.38;0.90;;;;;;;8.27;69.38;95873.94;4935661;28;20180;-80
2023/12/05 06:49:33;;;;;;;1.92;0.82;;;;;;;8.42;68.49;95878.34;4891322;28;20192;-81
2023/12/05 06:52:00;;;;;;;1.75;0.70;;;;;;;8.46;68.28;95878.63;4892902;28;20275;-80
2023/12/05 06:54:26;;;;;;;2.15;0.90;;;;;;;8.27;68.69;95886.91;4903424;28;20210;-83
2023/12/05 06:56:51;;;;;;;2.30;0.70;;;;;;;8.31;69.28;95898.31;4899676;28;20192;-81
2023/12/05 06:59:17;;;;;;;4.00;0.73;;;;;;;8.13;69.95;95896.25;4896014;28;20221;-82
2023/12/05 07:01:42;;;;;;;2.15;1.00;;;;;;;8.19;69.24;95890.00;4885156;28;20531;-81
2023/12/05 07:04:07;;;;;;;2.10;0.90;;;;;;;8.35;69.18;95899.34;4909686;28;20248;-81
2023/12/05 07:06:33;;;;;;;1.35;0.63;;;;;;;8.36;68.42;95906.09;4896019;28;20193;-80
2023/12/05 07:08:58;;;;;;;2.80;0.80;;;;;;;8.40;68.85;95904.53;4920368;28;20197;-80
2023/12/05 07:11:27;;;;;;;1.95;0.75;;;;;;;8.50;68.38;95902.97;4913705;28;20215;-81
2023/12/05 07:13:53;;;;;;;1.10;0.60;;;;;;;8.35;69.04;95909.72;4908726;28;20201;-80
2023/12/05 07:16:18;;;;;;;3.28;0.75;;;;;;;8.36;68.18;95913.88;4911996;28;20185;-81
2023/12/05 07:18:44;;;;;;;2.53;0.82;;;;;;;8.38;68.77;95916.97;4909286;28;20209;-82
2023/12/05 07:21:10;;;;;;;2.65;0.73;;;;;;;8.42;68.70;95915.44;4898499;28;20269;-80
2023/12/05 07:23:36;;;;;;;2.25;1.10;;;;;;;8.40;68.48;95930.47;4887300;28;20715;-79
2023/12/05 07:26:01;;;;;;;2.75;0.93;;;;;;;8.36;68.53;95932.03;4913854;28;20167;-80
2023/12/05 07:28:26;;;;;;;1.42;0.70;;;;;;;8.40;68.78;95927.88;4917093;28;20204;-80
2023/12/05 07:30:52;;;;;;;1.30;0.98;;;;;;;8.27;68.58;95930.97;4911059;28;20222;-80
2023/12/05 07:33:17;;;;;;;2.63;1.25;;;;;;;8.27;68.42;95933.56;4906466;28;20222;-81
2023/12/05 07:35:43;;;;;;;3.03;0.73;;;;;;;8.29;69.11;95930.72;4915450;28;20157;-81
2023/12/05 07:38:08;;;;;;;2.55;0.85;;;;;;;8.27;68.31;95936.16;4887606;28;20253;-79
2023/12/05 07:40:33;;;;;;;2.10;0.73;;;;;;;8.27;68.42;95941.34;4915541;28;20261;-81
2023/12/05 07:42:59;;;;;;;1.23;0.80;;;;;;;8.30;69.28;95947.84;4919564;28;20186;-80
2023/12/05 07:45:24;;;;;;;0.90;0.70;;;;;;;8.31;69.08;95945.00;4908031;28;20393;-80
2023/12/05 07:47:49;;;;;;;1.67;0.60;;;;;;;8.39;68.89;95957.44;4875351;28;20289;-80
2023/12/05 07:50:15;;;;;;;2.50;0.80;;;;;;;8.38;68.23;95955.88;4893377;28;20545;-81
2023/12/05 07:52:41;;;;;;;2.50;0.80;;;;;;;8.13;69.08;95953.28;4897473;28;20705;-80
2023/12/05 07:55:07;;;;;;;1.73;0.73;;;;;;;8.20;68.92;95957.16;4922434;28;20688;-80
2023/12/05 07:57:32;;;;;;;1.73;0.77;;;;;;;8.29;69.60;95951.47;4919659;28;20273;-81
2023/12/05 07:59:59;;;;;;;0.88;0.60;;;;;;;8.35;69.03;95956.41;4910906;28;20249;-80
2023/12/05 08:02:25;;;;;;;1.85;0.70;;;;;;;8.20;69.86;95959.00;4897538;28;20708;-81
2023/12/05 08:04:50;;;;;;;1.83;0.63;;;;;;;8.17;69.06;95960.28;4913622;28;20255;-80
2023/12/05 08:07:17;;;;;;;4.05;0.90;;;;;;;8.30;69.16;95961.59;4935352;28;20293;-81
2023/12/05 08:09:42;;;;;;;2.45;0.60;;;;;;;8.18;68.80;95967.03;4884440;28;20280;-81
2023/12/05 08:12:08;;;;;;;3.60;0.57;;;;;;;8.26;69.12;95960.56;4888567;28;20192;-80
2023/12/05 08:14:33;;;;;;;2.08;0.90;;;;;;;8.37;68.31;95964.69;4902081;28;20163;-80
2023/12/05 08:16:58;;;;;;;1.77;0.60;;;;;;;8.18;69.40;95968.84;4892023;28;20284;-82
2023/12/05 08:19:25;;;;;;;0.93;0.47;;;;;;;8.37;69.04;95984.69;4903537;28;20347;-82
2023/12/05 08:21:51;;;;;;;1.35;0.50;;;;;;;8.33;68.64;95970.66;4903574;28;20410;-83
2023/12/05 08:24:17;;;;;;;1.65;0.65;;;;;;;8.47;68.11;95978.75;4892881;28;20190;-80
2023/12/05 08:26:42;;;;;;;1.10;0.60;;;;;;;8.31;68.43;95973.53;4913904;28;20213;-80
2023/12/05 08:29:07;;;;;;;2.50;0.70;;;;;;;8.47;69.12;95983.94;4891404;28;20632;-81
2023/12/05 08:31:33;;;;;;;1.45;0.50;;;;;;;8.47;69.22;95979.53;4889037;28;20617;-80
2023/12/05 08:33:58;;;;;;;1.98;0.70;;;;;;;8.51;68.75;95982.38;4905859;28;20283;-80
2023/12/05 08:36:24;;;;;;;1.90;0.50;;;;;;;8.44;68.49;95977.44;4921065;28;20613;-80
2023/12/05 08:38:49;;;;;;;2.40;0.50;;;;;;;8.39;68.37;95977.41;4888507;28;20107;-81
2023/12/05 08:41:18;;;;;;;1.45;1.00;;;;;;;8.23;69.45;95979.22;4906986;28;20546;-81
2023/12/05 08:43:45;;;;;;;3.05;0.80;;;;;;;8.10;69.14;95975.31;4914024;28;20084;-81
2023/12/05 08:46:10;;;;;;;1.65;0.60;;;;;;;8.21;69.56;95976.13;4872897;28;20276;-81
2023/12/05 08:48:36;;;;;;;2.13;0.80;;;;;;;8.35;68.86;95987.53;4902179;28;20671;-81
2023/12/05 08:51:01;;;;;;;1.77;0.73;;;;;;;8.46;68.82;95982.38;4925025;28;20578;-80
2023/12/05 08:53:27;;;;;;;1.20;0.70;;;;;;;8.35;68.88;95978.97;4889682;28;20276;-79
2023/12/05 08:55:52;;;;;;;1.42;0.70;;;;;;;8.49;68.59;95985.22;4906344;28;20179;-80
2023/12/05 08:58:18;;;;;;;1.83;0.98;;;;;;;8.29;68.69;95990.38;4876463;28;20211;-80
2023/12/05 09:00:43;;;;;;;1.42;0.70;;;;;;;8.40;68.14;95971.19;4910599;28;20518;-80
2023/12/05 09:03:08;;;;;;;0.90;0.40;;;;;;;8.41;68.22;95978.72;4874501;28;20699;-80
2023/12/05 09:05:35;;;;;;;2.80;0.90;;;;;;;8.51;68.79;95990.16;4886876;28;20159;-82
2023/12/05 09:08:01;;;;;;;1.00;0.57;;;;;;;8.32;69.37;95985.44;4921451;28;20499;-80
2023/12/05 09:10:26;;;;;;;1.25;0.65;;;;;;;8.34;68.74;95990.38;4893525;28;20240;-79
2023/12/05 09:12:51;;;;;;;1.85;0.70;;;;;;;8.47;69.13;95989.13;4897510;28;20165;-80
2023/12/05 09:15:17;;;;;;;2.50;0.80;;;;;;;8.54;68.58;95979.25;4889810;28;20205;-80
2023/12/05 09:17:42;;;;;;;2.08;0.80;;;;;;;8.56;69.29;95982.38;4880039;28;20166;-80
2023/12/05 09:20:09;;;;;;;1.65;0.70;;;;;;;8.43;69.37;95979.25;4910030;28;20189;-81
2023/12/05 09:22:35;;;;;;;1.25;0.70;;;;;;;8.46;68.47;95979.78;4906213;28;20663;-81
2023/12/05 09:25:00;;;;;;;2.70;0.82;;;;;;;8.25;69.52;95988.28;4908965;28;20309;-81
2023/12/05 09:27:25;;;;;;;1.60;1.20;;;;;;;8.48;69.03;95990.66;4890675;28;20260;-80
2023/12/05 09:29:51;;;;;;;1.52;0.60;;;;;;;8.58;68.23;95990.66;4901824;28;20707;-80
2023/12/05 09:32:17;;;;;;;1.65;0.63;;;;;;;8.51;69.09;95985.72;4876619;28;20337;-80
2023/12/05 09:34:43;;;;;;;1.60;0.55;;;;;;;8.54;68.52;95992.22;4903073;28;20182;-81
2023/12/05 09:37:09;;;;;;;1.15;0.50;;;;;;;8.67;69.36;96002.09;4922610;28;20666;-81
2023/12/05 09:39:34;;;;;;;3.33;0.60;;;;;;;8.73;69.02;96003.63;4891464;28;20209;-79
2023/12/05 09:42:03;;;;;;;1.02;0.68;;;;;;;8.52;69.63;96009.88;4889424;28;20213;-80
2023/12/05 09:44:31;;;;;;;1.73;0.57;;;;;;;8.55;69.12;96007.53;4905656;28;20252;-81
2023/12/05 09:46:57;;;;;;;1.88;0.70;;;;;;;8.49;68.59;96002.59;4889998;28;20190;-80
2023/12/05 09:49:27;;;;;;;1.77;0.55;;;;;;;8.55;69.55;96011.94;4908324;28;20182;-79
2023/12/05 09:51:53;;;;;;;1.80;0.50;;;;;;;8.35;69.53;96003.09;4927353;28;20212;-79
2023/12/05 09:54:19;;;;;;;2.50;0.50;;;;;;;8.36;70.51;96003.84;4891959;28;20696;-80
2023/12/05 09:56:44;;;;;;;1.65;0.50;;;;;;;8.67;68.79;96016.84;4877150;28;20183;-80
2023/12/05 09:59:10;;;;;;;1.15;0.50;;;;;;;8.52;68.77;96007.28;4876398;28;20655;-80
2023/12/05 10:01:36;;;;;;;1.02;0.80;;;;;;;8.52;69.42;96002.09;4877109;28;20253;-79
2023/12/05 10:04:02;;;;;;;1.25;0.68;;;;;;;8.73;68.26;96006.22;4894436;28;20218;-80
2023/12/05 10:06:28;;;;;;;0.90;0.60;;;;;;;8.39;69.71;96000.75;4896019;28;20212;-80
2023/12/05 10:08:54;;;;;;;1.55;0.55;;;;;;;8.51;69.29;96003.13;4892595;28;20200;-80
2023/12/05 10:11:22;;;;;;;1.23;0.60;;;;;;;8.41;69.70;96004.66;4928767;28;20544;-80
2023/12/05 10:13:47;;;;;;;2.83;0.80;;;;;;;8.36;69.54;95999.47;4922652;28;20307;-79
2023/12/05 10:16:13;;;;;;;1.75;0.60;;;;;;;8.40;68.51;96003.09;4898788;28;20668;-82
2023/12/05 10:18:39;;;;;;;0.98;0.50;;;;;;;8.41;69.32;95996.88;4914806;28;20198;-80
2023/12/05 10:21:05;;;;;;;1.77;0.80;;;;;;;8.42;69.85;96005.44;4908581;28;20268;-79
2023/12/05 10:23:30;;;;;;;1.45;0.70;;;;;;;8.40;68.62;96005.69;4896419;28;20263;-82
2023/12/05 10:25:55;;;;;;;1.02;0.80;;;;;;;8.43;69.75;96004.41;4925975;28;20205;-80
2023/12/05 10:28:21;;;;;;;0.82;0.70;;;;;;;8.34;69.16;96001.50;4919373;28;20173;-81
2023/12/05 10:30:46;;;;;;;0.77;0.60;;;;;;;8.54;68.87;96007.78;4911300;28;20443;-80
2023/12/05 10:33:14;;;;;;;1.33;0.60;;;;;;;8.37;69.54;96003.59;4903607;28;20207;-80
2023/12/05 10:35:41;;;;;;;1.35;0.65;;;;;;;8.44;68.97;96009.34;4907242;28;20325;-81
2023/12/05 10:38:20;;;;;;;1.85;0.60;;;;;;;8.37;68.54;96010.59;4910279;28;20311;-80
2023/12/05 10:40:55;;;;;;;0.75;0.63;;;;;;;8.50;68.68;96004.16;4907586;28;20286;-79
2023/12/05 10:43:22;;;;;;;1.02;0.57;;;;;;;8.46;69.14;95990.91;4927191;28;20341;-80
2023/12/05 10:45:48;;;;;;;1.80;0.50;;;;;;;8.39;68.06;96019.69;4911773;28;20283;-80
2023/12/05 10:48:14;;;;;;;0.70;0.60;;;;;;;8.57;67.87;95996.91;4901355;28;20206;-79
2023/12/05 10:50:40;;;;;;;1.55;0.47;;;;;;;8.42;68.29;96003.63;4891358;28;20291;-79
2023/12/05 10:53:06;;;;;;;1.27;0.50;;;;;;;8.21;69.42;96009.81;4884391;28;20204;-81
2023/12/05 10:55:32;;;;;;;0.70;0.40;;;;;;;8.31;68.46;96004.66;4911684;28;20540;-79
2023/12/05 10:57:59;;;;;;;1.65;0.50;;;;;;;8.19;68.29;95993.72;4924625;28;20512;-81
2023/12/05 11:00:24;;;;;;;1.10;0.60;;;;;;;8.26;68.73;96002.06;4875558;28;20140;-80
2023/12/05 11:02:53;;;;;;;1.08;0.47;;;;;;;8.30;69.12;95994.53;4888138;28;20277;-79
2023/12/05 11:05:19;;;;;;;1.67;0.50;;;;;;;7.93;69.15;95990.31;4910197;28;20620;-82
2023/12/05 11:07:44;;;;;;;1.67;0.68;;;;;;;7.98;69.39;95998.09;4894968;28;20170;-80
2023/12/05 11:10:10;;;;;;;1.00;0.68;;;;;;;8.07;69.17;95986.97;4909972;28;20177;-78
2023/12/05 11:12:37;;;;;;;1.05;0.60;;;;;;;8.23;69.50;95997.38;4922912;28;20244;-80
2023/12/05 11:15:03;;;;;;;1.33;0.52;;;;;;;8.06;69.29;95997.59;4905986;28;20233;-82
2023/12/05 11:17:36;;;;;;;1.85;0.60;;;;;;;8.21;69.91;96002.03;4907151;28;20674;-79
2023/12/05 11:20:30;;;;;;;0.77;0.60;;;;;;;8.11;69.20;95992.44;4907502;28;20572;-79
2023/12/05 11:23:26;;;;;;;1.38;0.50;;;;;;;8.05;68.78;95993.44;4890776;28;20260;-80
2023/12/05 11:26:05;;;;;;;1.40;0.60;;;;;;;8.03;69.70;95998.13;4882701;28;20470;-83
2023/12/05 11:29:03;;;;;;;0.57;0.40;;;;;;;8.24;69.26;95997.13;4899701;28;20188;-79
2023/12/05 11:31:43;;;;;;;1.48;0.40;;;;;;;7.96;69.79;95990.59;4896880;28;20178;-80
2023/12/05 11:34:33;;;;;;;3.40;0.30;;;;;;;8.29;68.15;95988.53;4902944;28;20352;-80
2023/12/05 11:37:25;;;;;;;0.52;0.30;;;;;;;8.31;68.17;95986.50;4906129;28;20760;-78